sensor_id;sensor_type;location;lat;lon;timestamp;temperature;humidity
29341;DHT22;16337;59.536;13.468;2023-04-03T00:01:33;-4.60;99.90
29341;DHT22;16337;59.536;13.468;2023-04-03T00:03:59;-4.60;99.90
29341;DHT22;16337;59.536;13.468;2023-04-03T00:06:25;-4.70;99.90
29341;DHT22;16337;59.536;13.468;2023-04-03T00:08:52;-4.70;99.90
29341;DHT22;16337;59.536;13.468;2023-04-03T00:11:18;-4.70;99.90
29341;DHT22;16337;59.536;13.468;2023-04-03T00:13:44;-4.80;99.90
29341;DHT22;16337;59.536;13.468;2023-04-03T00:16:10;-4.80;99.90
29341;DHT22;16337;59.536;13.468;2023-04-03T00:18:37;-4.80;99.90
29341;DHT22;16337;59.536;13.468;2023-04-03T00:21:04;-4.90;99.90
29341;DHT22;16337;59.536;13.468;2023-04-03T00:23:30;-4.90;99.90
29341;DHT22;16337;59.536;13.468;2023-04-03T00:25:55;-4.90;99.90
29341;DHT22;16337;59.536;13.468;2023-04-03T00:28:21;-4.90;99.90
29341;DHT22;16337;59.536;13.468;2023-04-03T00:30:49;-4.90;99.90
29341;DHT22;16337;59.536;13.468;2023-04-03T00:33:18;-4.90;99.90
29341;DHT22;16337;59.536;13.468;2023-04-03T00:35:48;-4.80;99.90
29341;DHT22;16337;59.536;13.468;2023-04-03T00:38:14;-4.90;99.90
29341;DHT22;16337;59.536;13.468;2023-04-03T00:40:46;-4.90;99.90
29341;DHT22;16337;59.536;13.468;2023-04-03T00:43:14;-4.90;99.90
29341;DHT22;16337;59.536;13.468;2023-04-03T00:45:55;-4.90;99.90
29341;DHT22;16337;59.536;13.468;2023-04-03T00:48:42;-5.00;99.90
29341;DHT22;16337;59.536;13.468;2023-04-03T00:51:27;-5.00;99.90
29341;DHT22;16337;59.536;13.468;2023-04-03T00:53:59;-5.00;99.90
29341;DHT22;16337;59.536;13.468;2023-04-03T00:56:27;-5.00;99.90
29341;DHT22;16337;59.536;13.468;2023-04-03T00:58:58;-5.00;99.90
29341;DHT22;16337;59.536;13.468;2023-04-03T01:01:26;-5.00;99.90
29341;DHT22;16337;59.536;13.468;2023-04-03T01:03:53;-5.00;99.90
29341;DHT22;16337;59.536;13.468;2023-04-03T01:06:23;-5.10;99.90
29341;DHT22;16337;59.536;13.468;2023-04-03T01:08:51;-5.10;99.90
29341;DHT22;16337;59.536;13.468;2023-04-03T01:11:16;-5.20;99.90
29341;DHT22;16337;59.536;13.468;2023-04-03T01:13:42;-5.20;99.90
29341;DHT22;16337;59.536;13.468;2023-04-03T01:16:08;-5.20;99.90
29341;DHT22;16337;59.536;13.468;2023-04-03T01:18:37;-5.20;99.90
29341;DHT22;16337;59.536;13.468;2023-04-03T01:26:35;-5.20;99.90
29341;DHT22;16337;59.536;13.468;2023-04-03T01:29:02;-5.30;99.90
29341;DHT22;16337;59.536;13.468;2023-04-03T01:31:50;-5.30;99.90
29341;DHT22;16337;59.536;13.468;2023-04-03T01:34:16;-5.30;99.90
29341;DHT22;16337;59.536;13.468;2023-04-03T01:36:42;-5.30;99.90
29341;DHT22;16337;59.536;13.468;2023-04-03T01:39:08;-5.20;99.90
29341;DHT22;16337;59.536;13.468;2023-04-03T01:41:34;-5.20;99.90
29341;DHT22;16337;59.536;13.468;2023-04-03T01:44:00;-5.30;99.90
29341;DHT22;16337;59.536;13.468;2023-04-03T01:46:26;-5.30;99.90
29341;DHT22;16337;59.536;13.468;2023-04-03T01:48:51;-5.30;99.90
29341;DHT22;16337;59.536;13.468;2023-04-03T01:51:17;-5.40;99.90
29341;DHT22;16337;59.536;13.468;2023-04-03T01:53:43;-5.40;99.90
29341;DHT22;16337;59.536;13.468;2023-04-03T01:56:09;-5.40;99.90
29341;DHT22;16337;59.536;13.468;2023-04-03T01:58:35;-5.40;99.90
29341;DHT22;16337;59.536;13.468;2023-04-03T02:01:01;-5.50;99.90
29341;DHT22;16337;59.536;13.468;2023-04-03T02:03:27;-5.50;99.90
29341;DHT22;16337;59.536;13.468;2023-04-03T02:05:52;-5.50;99.90
29341;DHT22;16337;59.536;13.468;2023-04-03T02:08:18;-5.50;99.90
29341;DHT22;16337;59.536;13.468;2023-04-03T02:10:47;-5.50;99.90
29341;DHT22;16337;59.536;13.468;2023-04-03T02:13:12;-5.60;99.90
29341;DHT22;16337;59.536;13.468;2023-04-03T02:15:39;-5.60;99.90
29341;DHT22;16337;59.536;13.468;2023-04-03T02:18:05;-5.60;99.90
29341;DHT22;16337;59.536;13.468;2023-04-03T02:20:34;-5.70;99.90
29341;DHT22;16337;59.536;13.468;2023-04-03T02:23:01;-5.70;99.90
29341;DHT22;16337;59.536;13.468;2023-04-03T02:25:27;-5.70;99.90
29341;DHT22;16337;59.536;13.468;2023-04-03T02:27:53;-5.70;99.90
29341;DHT22;16337;59.536;13.468;2023-04-03T02:30:19;-5.70;99.90
29341;DHT22;16337;59.536;13.468;2023-04-03T02:32:44;-5.80;99.90
29341;DHT22;16337;59.536;13.468;2023-04-03T02:35:13;-5.80;99.90
29341;DHT22;16337;59.536;13.468;2023-04-03T02:37:42;-5.80;99.90
29341;DHT22;16337;59.536;13.468;2023-04-03T02:40:08;-5.90;99.90
29341;DHT22;16337;59.536;13.468;2023-04-03T02:42:34;-5.90;99.90
29341;DHT22;16337;59.536;13.468;2023-04-03T02:45:00;-6.00;99.90
29341;DHT22;16337;59.536;13.468;2023-04-03T02:47:27;-6.00;99.90
29341;DHT22;16337;59.536;13.468;2023-04-03T02:49:53;-6.00;99.90
29341;DHT22;16337;59.536;13.468;2023-04-03T02:52:22;-6.10;99.90
29341;DHT22;16337;59.536;13.468;2023-04-03T02:54:48;-6.20;99.90
29341;DHT22;16337;59.536;13.468;2023-04-03T02:57:14;-6.20;99.90
29341;DHT22;16337;59.536;13.468;2023-04-03T02:59:39;-6.20;99.90
29341;DHT22;16337;59.536;13.468;2023-04-03T03:02:07;-6.30;99.90
29341;DHT22;16337;59.536;13.468;2023-04-03T03:04:33;-6.30;99.90
29341;DHT22;16337;59.536;13.468;2023-04-03T03:06:59;-6.30;99.90
29341;DHT22;16337;59.536;13.468;2023-04-03T03:09:25;-6.30;99.90
29341;DHT22;16337;59.536;13.468;2023-04-03T03:11:55;-6.40;99.90
29341;DHT22;16337;59.536;13.468;2023-04-03T03:14:23;-6.40;99.90
29341;DHT22;16337;59.536;13.468;2023-04-03T03:16:49;-6.40;99.90
29341;DHT22;16337;59.536;13.468;2023-04-03T03:19:15;-6.40;99.90
29341;DHT22;16337;59.536;13.468;2023-04-03T03:21:44;-6.40;99.90
29341;DHT22;16337;59.536;13.468;2023-04-03T03:24:10;-6.50;99.90
29341;DHT22;16337;59.536;13.468;2023-04-03T03:26:37;-6.50;99.90
29341;DHT22;16337;59.536;13.468;2023-04-03T03:29:03;-6.50;99.90
29341;DHT22;16337;59.536;13.468;2023-04-03T03:31:28;-6.50;99.90
29341;DHT22;16337;59.536;13.468;2023-04-03T03:33:54;-6.60;99.90
29341;DHT22;16337;59.536;13.468;2023-04-03T03:36:20;-6.60;99.90
29341;DHT22;16337;59.536;13.468;2023-04-03T03:38:49;-6.60;99.90
29341;DHT22;16337;59.536;13.468;2023-04-03T03:41:15;-6.60;99.90
29341;DHT22;16337;59.536;13.468;2023-04-03T03:43:41;-6.60;99.90
29341;DHT22;16337;59.536;13.468;2023-04-03T03:46:06;-6.50;99.90
29341;DHT22;16337;59.536;13.468;2023-04-03T03:48:32;-6.40;99.90
29341;DHT22;16337;59.536;13.468;2023-04-03T03:50:58;-6.40;99.90
29341;DHT22;16337;59.536;13.468;2023-04-03T03:53:25;-6.50;99.90
29341;DHT22;16337;59.536;13.468;2023-04-03T03:55:51;-6.50;99.90
29341;DHT22;16337;59.536;13.468;2023-04-03T03:58:16;-6.50;99.90
29341;DHT22;16337;59.536;13.468;2023-04-03T04:00:45;-6.60;99.90
29341;DHT22;16337;59.536;13.468;2023-04-03T04:03:11;-6.60;99.90
29341;DHT22;16337;59.536;13.468;2023-04-03T04:05:36;-6.60;99.90
29341;DHT22;16337;59.536;13.468;2023-04-03T04:08:02;-6.70;99.90
29341;DHT22;16337;59.536;13.468;2023-04-03T04:10:28;-6.70;99.90
29341;DHT22;16337;59.536;13.468;2023-04-03T04:12:54;-6.80;99.90
29341;DHT22;16337;59.536;13.468;2023-04-03T04:15:19;-6.80;99.90
29341;DHT22;16337;59.536;13.468;2023-04-03T04:17:47;-6.80;99.90
29341;DHT22;16337;59.536;13.468;2023-04-03T04:20:13;-6.80;99.90
29341;DHT22;16337;59.536;13.468;2023-04-03T04:22:38;-6.90;99.90
29341;DHT22;16337;59.536;13.468;2023-04-03T04:25:04;-6.90;99.90
29341;DHT22;16337;59.536;13.468;2023-04-03T04:27:30;-6.90;99.90
29341;DHT22;16337;59.536;13.468;2023-04-03T04:29:56;-6.90;99.90
29341;DHT22;16337;59.536;13.468;2023-04-03T04:32:21;-7.00;99.90
29341;DHT22;16337;59.536;13.468;2023-04-03T04:34:47;-7.00;99.90
29341;DHT22;16337;59.536;13.468;2023-04-03T04:37:13;-7.00;99.90
29341;DHT22;16337;59.536;13.468;2023-04-03T04:39:39;-7.00;99.90
29341;DHT22;16337;59.536;13.468;2023-04-03T04:42:04;-7.00;99.90
29341;DHT22;16337;59.536;13.468;2023-04-03T04:44:35;-6.90;99.90
29341;DHT22;16337;59.536;13.468;2023-04-03T04:47:01;-6.90;99.90
29341;DHT22;16337;59.536;13.468;2023-04-03T04:49:26;-6.90;99.90
29341;DHT22;16337;59.536;13.468;2023-04-03T04:51:52;-6.80;99.90
29341;DHT22;16337;59.536;13.468;2023-04-03T04:54:18;-6.80;99.90
29341;DHT22;16337;59.536;13.468;2023-04-03T04:56:47;-6.80;99.90
29341;DHT22;16337;59.536;13.468;2023-04-03T04:59:12;-6.80;99.90
29341;DHT22;16337;59.536;13.468;2023-04-03T05:01:38;-6.80;99.90
29341;DHT22;16337;59.536;13.468;2023-04-03T05:04:04;-6.70;99.90
29341;DHT22;16337;59.536;13.468;2023-04-03T05:06:30;-6.70;99.90
29341;DHT22;16337;59.536;13.468;2023-04-03T05:08:57;-6.60;99.90
29341;DHT22;16337;59.536;13.468;2023-04-03T05:11:23;-6.50;99.90
29341;DHT22;16337;59.536;13.468;2023-04-03T05:13:49;-6.40;99.90
29341;DHT22;16337;59.536;13.468;2023-04-03T05:16:15;-6.40;99.90
29341;DHT22;16337;59.536;13.468;2023-04-03T05:18:41;-6.20;99.90
29341;DHT22;16337;59.536;13.468;2023-04-03T05:21:07;-6.10;99.90
29341;DHT22;16337;59.536;13.468;2023-04-03T05:23:32;-6.00;99.90
29341;DHT22;16337;59.536;13.468;2023-04-03T05:25:58;-6.00;99.90
29341;DHT22;16337;59.536;13.468;2023-04-03T05:28:24;-5.90;99.90
29341;DHT22;16337;59.536;13.468;2023-04-03T05:30:54;-5.70;99.90
29341;DHT22;16337;59.536;13.468;2023-04-03T05:33:21;-5.60;99.90
29341;DHT22;16337;59.536;13.468;2023-04-03T05:35:46;-5.50;99.90
29341;DHT22;16337;59.536;13.468;2023-04-03T05:38:12;-5.40;99.90
29341;DHT22;16337;59.536;13.468;2023-04-03T05:40:38;-5.30;99.90
29341;DHT22;16337;59.536;13.468;2023-04-03T05:43:04;-5.20;99.90
29341;DHT22;16337;59.536;13.468;2023-04-03T05:45:30;-5.00;99.90
29341;DHT22;16337;59.536;13.468;2023-04-03T05:47:56;-4.90;99.90
29341;DHT22;16337;59.536;13.468;2023-04-03T05:50:22;-4.80;99.90
29341;DHT22;16337;59.536;13.468;2023-04-03T05:52:49;-4.70;99.90
29341;DHT22;16337;59.536;13.468;2023-04-03T05:55:16;-4.50;99.90
29341;DHT22;16337;59.536;13.468;2023-04-03T05:57:45;-4.40;99.90
29341;DHT22;16337;59.536;13.468;2023-04-03T06:00:15;-4.30;99.90
29341;DHT22;16337;59.536;13.468;2023-04-03T06:02:42;-4.20;99.90
29341;DHT22;16337;59.536;13.468;2023-04-03T06:05:08;-4.00;99.90
29341;DHT22;16337;59.536;13.468;2023-04-03T06:07:35;-3.80;99.90
29341;DHT22;16337;59.536;13.468;2023-04-03T06:10:01;-3.70;99.90
29341;DHT22;16337;59.536;13.468;2023-04-03T06:12:27;-3.60;99.90
29341;DHT22;16337;59.536;13.468;2023-04-03T06:14:56;-3.50;99.90
29341;DHT22;16337;59.536;13.468;2023-04-03T06:17:22;-3.30;99.90
29341;DHT22;16337;59.536;13.468;2023-04-03T06:19:49;-3.20;99.90
29341;DHT22;16337;59.536;13.468;2023-04-03T06:22:15;-3.00;99.90
29341;DHT22;16337;59.536;13.468;2023-04-03T06:24:41;-2.80;99.90
29341;DHT22;16337;59.536;13.468;2023-04-03T06:27:07;-2.70;99.90
29341;DHT22;16337;59.536;13.468;2023-04-03T06:29:33;-2.60;99.90
29341;DHT22;16337;59.536;13.468;2023-04-03T06:31:58;-2.40;99.90
29341;DHT22;16337;59.536;13.468;2023-04-03T06:34:24;-2.30;99.90
29341;DHT22;16337;59.536;13.468;2023-04-03T06:36:51;-2.10;99.90
29341;DHT22;16337;59.536;13.468;2023-04-03T06:39:19;-1.90;99.90
29341;DHT22;16337;59.536;13.468;2023-04-03T06:41:49;-1.80;99.90
29341;DHT22;16337;59.536;13.468;2023-04-03T06:44:15;-1.70;99.90
29341;DHT22;16337;59.536;13.468;2023-04-03T06:46:42;-1.50;99.90
29341;DHT22;16337;59.536;13.468;2023-04-03T06:49:08;-1.40;99.90
29341;DHT22;16337;59.536;13.468;2023-04-03T06:51:35;-1.20;99.90
29341;DHT22;16337;59.536;13.468;2023-04-03T06:54:02;-1.00;99.90
29341;DHT22;16337;59.536;13.468;2023-04-03T06:56:28;-0.90;99.90
29341;DHT22;16337;59.536;13.468;2023-04-03T06:58:55;-0.70;99.90
29341;DHT22;16337;59.536;13.468;2023-04-03T07:01:24;-0.60;99.90
29341;DHT22;16337;59.536;13.468;2023-04-03T07:03:51;-0.50;99.90
29341;DHT22;16337;59.536;13.468;2023-04-03T07:06:18;-0.40;99.90
29341;DHT22;16337;59.536;13.468;2023-04-03T07:08:45;-0.30;99.90
29341;DHT22;16337;59.536;13.468;2023-04-03T07:11:12;-0.20;99.90
29341;DHT22;16337;59.536;13.468;2023-04-03T07:13:39;-0.10;99.90
29341;DHT22;16337;59.536;13.468;2023-04-03T07:16:05;0.00;99.90
29341;DHT22;16337;59.536;13.468;2023-04-03T07:18:33;0.10;99.90
29341;DHT22;16337;59.536;13.468;2023-04-03T07:20:59;0.30;99.90
29341;DHT22;16337;59.536;13.468;2023-04-03T07:23:25;0.40;99.90
29341;DHT22;16337;59.536;13.468;2023-04-03T07:25:52;0.50;99.90
29341;DHT22;16337;59.536;13.468;2023-04-03T07:28:18;0.60;99.90
29341;DHT22;16337;59.536;13.468;2023-04-03T07:30:47;0.80;99.90
29341;DHT22;16337;59.536;13.468;2023-04-03T07:33:15;0.90;99.90
29341;DHT22;16337;59.536;13.468;2023-04-03T07:35:41;0.90;99.90
29341;DHT22;16337;59.536;13.468;2023-04-03T07:38:08;1.10;99.90
29341;DHT22;16337;59.536;13.468;2023-04-03T07:40:34;1.20;99.90
29341;DHT22;16337;59.536;13.468;2023-04-03T07:43:00;1.30;99.90
29341;DHT22;16337;59.536;13.468;2023-04-03T07:45:26;1.40;99.90
29341;DHT22;16337;59.536;13.468;2023-04-03T07:47:52;1.50;99.90
29341;DHT22;16337;59.536;13.468;2023-04-03T07:50:18;1.70;99.90
29341;DHT22;16337;59.536;13.468;2023-04-03T07:52:44;1.90;99.90
29341;DHT22;16337;59.536;13.468;2023-04-03T07:55:11;2.00;99.90
29341;DHT22;16337;59.536;13.468;2023-04-03T07:57:36;2.00;99.90
29341;DHT22;16337;59.536;13.468;2023-04-03T08:00:05;2.20;99.90
29341;DHT22;16337;59.536;13.468;2023-04-03T08:02:31;2.30;99.90
29341;DHT22;16337;59.536;13.468;2023-04-03T08:05:00;2.20;99.90
29341;DHT22;16337;59.536;13.468;2023-04-03T08:07:26;2.50;99.90
29341;DHT22;16337;59.536;13.468;2023-04-03T08:09:52;2.80;99.90
29341;DHT22;16337;59.536;13.468;2023-04-03T08:12:18;3.10;99.90
29341;DHT22;16337;59.536;13.468;2023-04-03T08:14:44;3.40;99.90
29341;DHT22;16337;59.536;13.468;2023-04-03T08:17:10;3.70;99.90
29341;DHT22;16337;59.536;13.468;2023-04-03T08:19:42;3.90;99.90
29341;DHT22;16337;59.536;13.468;2023-04-03T08:22:08;4.00;99.90
29341;DHT22;16337;59.536;13.468;2023-04-03T08:24:34;3.90;99.90
29341;DHT22;16337;59.536;13.468;2023-04-03T08:27:00;3.80;99.90
29341;DHT22;16337;59.536;13.468;2023-04-03T08:29:26;3.60;99.90
29341;DHT22;16337;59.536;13.468;2023-04-03T08:31:52;3.70;99.90
29341;DHT22;16337;59.536;13.468;2023-04-03T08:34:18;4.00;99.90
29341;DHT22;16337;59.536;13.468;2023-04-03T08:36:44;4.10;99.90
29341;DHT22;16337;59.536;13.468;2023-04-03T08:39:11;4.20;99.90
29341;DHT22;16337;59.536;13.468;2023-04-03T08:41:40;4.30;99.90
29341;DHT22;16337;59.536;13.468;2023-04-03T08:44:15;4.20;99.90
29341;DHT22;16337;59.536;13.468;2023-04-03T08:46:47;4.20;99.90
29341;DHT22;16337;59.536;13.468;2023-04-03T08:52:11;4.90;99.90
29341;DHT22;16337;59.536;13.468;2023-04-03T08:54:49;5.20;99.90
29341;DHT22;16337;59.536;13.468;2023-04-03T08:57:16;5.60;99.90
29341;DHT22;16337;59.536;13.468;2023-04-03T08:59:43;5.70;99.90
29341;DHT22;16337;59.536;13.468;2023-04-03T09:02:51;5.60;99.90
29341;DHT22;16337;59.536;13.468;2023-04-03T09:07:49;6.10;99.90
29341;DHT22;16337;59.536;13.468;2023-04-03T09:10:24;6.00;99.60
29341;DHT22;16337;59.536;13.468;2023-04-03T09:15:46;6.00;99.50
29341;DHT22;16337;59.536;13.468;2023-04-03T09:18:16;6.20;99.90
29341;DHT22;16337;59.536;13.468;2023-04-03T09:23:59;7.10;97.00
29341;DHT22;16337;59.536;13.468;2023-04-03T09:26:33;7.20;99.00
29341;DHT22;16337;59.536;13.468;2023-04-03T09:29:04;7.40;99.70
29341;DHT22;16337;59.536;13.468;2023-04-03T09:31:38;7.50;97.60
29341;DHT22;16337;59.536;13.468;2023-04-03T09:36:47;7.60;96.60
29341;DHT22;16337;59.536;13.468;2023-04-03T09:39:20;7.90;97.90
29341;DHT22;16337;59.536;13.468;2023-04-03T09:44:25;8.40;96.50
29341;DHT22;16337;59.536;13.468;2023-04-03T09:46:51;8.60;94.60
29341;DHT22;16337;59.536;13.468;2023-04-03T09:49:17;7.90;92.80
29341;DHT22;16337;59.536;13.468;2023-04-03T09:51:43;7.80;93.40
29341;DHT22;16337;59.536;13.468;2023-04-03T09:54:37;7.40;92.50
29341;DHT22;16337;59.536;13.468;2023-04-03T09:57:08;7.80;93.80
29341;DHT22;16337;59.536;13.468;2023-04-03T09:59:36;8.00;93.00
29341;DHT22;16337;59.536;13.468;2023-04-03T10:02:30;8.20;93.00
29341;DHT22;16337;59.536;13.468;2023-04-03T10:05:00;7.80;92.30
29341;DHT22;16337;59.536;13.468;2023-04-03T10:07:32;7.40;91.70
29341;DHT22;16337;59.536;13.468;2023-04-03T10:10:02;7.10;91.40
29341;DHT22;16337;59.536;13.468;2023-04-03T10:12:29;7.10;92.20
29341;DHT22;16337;59.536;13.468;2023-04-03T10:14:57;7.50;92.20
29341;DHT22;16337;59.536;13.468;2023-04-03T10:17:48;7.50;94.40
29341;DHT22;16337;59.536;13.468;2023-04-03T10:28:29;9.20;93.40
29341;DHT22;16337;59.536;13.468;2023-04-03T10:36:50;9.30;93.90
29341;DHT22;16337;59.536;13.468;2023-04-03T10:39:47;9.50;95.20
29341;DHT22;16337;59.536;13.468;2023-04-03T10:50:39;10.40;92.10
29341;DHT22;16337;59.536;13.468;2023-04-03T10:53:24;10.30;93.80
29341;DHT22;16337;59.536;13.468;2023-04-03T10:56:03;10.20;90.20
29341;DHT22;16337;59.536;13.468;2023-04-03T10:58:38;9.50;90.50
29341;DHT22;16337;59.536;13.468;2023-04-03T11:01:11;10.00;93.20
29341;DHT22;16337;59.536;13.468;2023-04-03T11:03:41;10.30;92.40
29341;DHT22;16337;59.536;13.468;2023-04-03T11:06:11;10.50;92.60
29341;DHT22;16337;59.536;13.468;2023-04-03T11:11:29;10.10;90.10
29341;DHT22;16337;59.536;13.468;2023-04-03T11:14:03;10.10;91.80
29341;DHT22;16337;59.536;13.468;2023-04-03T11:16:35;10.00;90.50
29341;DHT22;16337;59.536;13.468;2023-04-03T11:19:11;10.30;91.10
29341;DHT22;16337;59.536;13.468;2023-04-03T11:21:46;10.50;89.80
29341;DHT22;16337;59.536;13.468;2023-04-03T11:24:24;10.60;91.30
29341;DHT22;16337;59.536;13.468;2023-04-03T11:26:51;10.10;90.10
29341;DHT22;16337;59.536;13.468;2023-04-03T11:29:34;10.70;91.00
29341;DHT22;16337;59.536;13.468;2023-04-03T11:32:15;11.30;89.80
29341;DHT22;16337;59.536;13.468;2023-04-03T11:34:48;11.30;89.00
29341;DHT22;16337;59.536;13.468;2023-04-03T11:37:29;10.90;89.30
29341;DHT22;16337;59.536;13.468;2023-04-03T11:40:02;10.20;88.70
29341;DHT22;16337;59.536;13.468;2023-04-03T11:42:39;10.30;88.20
29341;DHT22;16337;59.536;13.468;2023-04-03T11:47:59;11.00;90.70
29341;DHT22;16337;59.536;13.468;2023-04-03T12:16:46;11.40;84.00
29341;DHT22;16337;59.536;13.468;2023-04-03T12:48:25;11.10;86.70
29341;DHT22;16337;59.536;13.468;2023-04-03T12:50:52;11.10;84.40
29341;DHT22;16337;59.536;13.468;2023-04-03T12:53:47;11.40;89.10
29341;DHT22;16337;59.536;13.468;2023-04-03T12:58:52;10.60;86.20
29341;DHT22;16337;59.536;13.468;2023-04-03T13:01:25;10.70;86.80
29341;DHT22;16337;59.536;13.468;2023-04-03T13:03:56;10.70;85.10
29341;DHT22;16337;59.536;13.468;2023-04-03T13:06:26;10.70;88.50
29341;DHT22;16337;59.536;13.468;2023-04-03T13:08:55;11.10;90.00
29341;DHT22;16337;59.536;13.468;2023-04-03T13:11:24;11.40;87.00
29341;DHT22;16337;59.536;13.468;2023-04-03T13:14:02;11.20;86.90
29341;DHT22;16337;59.536;13.468;2023-04-03T13:16:29;11.30;88.50
29341;DHT22;16337;59.536;13.468;2023-04-03T13:18:55;11.60;87.20
29341;DHT22;16337;59.536;13.468;2023-04-03T13:21:39;11.80;83.50
29341;DHT22;16337;59.536;13.468;2023-04-03T13:24:05;11.30;83.40
29341;DHT22;16337;59.536;13.468;2023-04-03T13:26:32;11.20;88.10
29341;DHT22;16337;59.536;13.468;2023-04-03T13:29:25;11.10;87.30
29341;DHT22;16337;59.536;13.468;2023-04-03T13:31:54;10.60;86.60
29341;DHT22;16337;59.536;13.468;2023-04-03T13:34:21;10.70;87.90
29341;DHT22;16337;59.536;13.468;2023-04-03T13:41:50;10.50;90.20
29341;DHT22;16337;59.536;13.468;2023-04-03T13:46:52;11.00;90.20
29341;DHT22;16337;59.536;13.468;2023-04-03T13:49:35;10.60;86.80
29341;DHT22;16337;59.536;13.468;2023-04-03T13:52:20;10.40;88.40
29341;DHT22;16337;59.536;13.468;2023-04-03T13:54:53;10.50;88.50
29341;DHT22;16337;59.536;13.468;2023-04-03T13:57:19;10.20;89.90
29341;DHT22;16337;59.536;13.468;2023-04-03T13:59:46;9.90;89.60
29341;DHT22;16337;59.536;13.468;2023-04-03T14:02:31;10.10;90.10
29341;DHT22;16337;59.536;13.468;2023-04-03T14:05:00;10.20;88.50
29341;DHT22;16337;59.536;13.468;2023-04-03T14:07:28;10.40;90.10
29341;DHT22;16337;59.536;13.468;2023-04-03T14:09:55;10.20;88.00
29341;DHT22;16337;59.536;13.468;2023-04-03T14:12:36;9.90;89.40
29341;DHT22;16337;59.536;13.468;2023-04-03T14:15:06;9.80;89.80
29341;DHT22;16337;59.536;13.468;2023-04-03T14:17:36;9.90;92.40
29341;DHT22;16337;59.536;13.468;2023-04-03T14:20:02;9.90;89.50
29341;DHT22;16337;59.536;13.468;2023-04-03T14:22:31;9.30;87.90
29341;DHT22;16337;59.536;13.468;2023-04-03T14:24:58;9.10;90.00
29341;DHT22;16337;59.536;13.468;2023-04-03T14:27:33;8.90;90.20
29341;DHT22;16337;59.536;13.468;2023-04-03T14:30:00;8.70;89.60
29341;DHT22;16337;59.536;13.468;2023-04-03T14:32:27;8.50;90.00
29341;DHT22;16337;59.536;13.468;2023-04-03T14:34:53;8.70;90.70
29341;DHT22;16337;59.536;13.468;2023-04-03T14:37:25;8.80;88.70
29341;DHT22;16337;59.536;13.468;2023-04-03T14:39:52;8.50;90.70
29341;DHT22;16337;59.536;13.468;2023-04-03T14:42:29;8.50;91.30
29341;DHT22;16337;59.536;13.468;2023-04-03T14:44:57;8.00;91.20
29341;DHT22;16337;59.536;13.468;2023-04-03T14:47:25;7.80;91.20
29341;DHT22;16337;59.536;13.468;2023-04-03T14:49:52;7.60;91.60
29341;DHT22;16337;59.536;13.468;2023-04-03T14:52:26;7.50;92.30
29341;DHT22;16337;59.536;13.468;2023-04-03T14:54:53;7.40;91.60
29341;DHT22;16337;59.536;13.468;2023-04-03T14:57:21;7.30;91.90
29341;DHT22;16337;59.536;13.468;2023-04-03T14:59:49;6.90;92.50
29341;DHT22;16337;59.536;13.468;2023-04-03T15:02:36;6.80;92.70
29341;DHT22;16337;59.536;13.468;2023-04-03T15:05:05;6.50;93.00
29341;DHT22;16337;59.536;13.468;2023-04-03T15:07:41;6.30;92.90
29341;DHT22;16337;59.536;13.468;2023-04-03T15:12:41;6.10;94.40
29341;DHT22;16337;59.536;13.468;2023-04-03T15:15:07;6.10;94.50
29341;DHT22;16337;59.536;13.468;2023-04-03T15:17:34;6.00;93.60
29341;DHT22;16337;59.536;13.468;2023-04-03T15:20:02;5.80;93.90
29341;DHT22;16337;59.536;13.468;2023-04-03T15:22:28;5.70;94.60
29341;DHT22;16337;59.536;13.468;2023-04-03T15:24:53;5.60;94.60
29341;DHT22;16337;59.536;13.468;2023-04-03T15:27:19;5.50;95.60
29341;DHT22;16337;59.536;13.468;2023-04-03T15:29:45;5.50;94.90
29341;DHT22;16337;59.536;13.468;2023-04-03T15:32:12;5.40;94.80
29341;DHT22;16337;59.536;13.468;2023-04-03T15:34:38;5.40;94.70
29341;DHT22;16337;59.536;13.468;2023-04-03T15:37:04;5.30;95.20
29341;DHT22;16337;59.536;13.468;2023-04-03T15:39:31;5.30;95.80
29341;DHT22;16337;59.536;13.468;2023-04-03T15:41:57;5.20;96.00
29341;DHT22;16337;59.536;13.468;2023-04-03T15:44:32;5.20;96.40
29341;DHT22;16337;59.536;13.468;2023-04-03T15:46:59;5.30;97.30
29341;DHT22;16337;59.536;13.468;2023-04-03T15:49:25;5.30;97.30
29341;DHT22;16337;59.536;13.468;2023-04-03T15:51:51;5.20;98.40
29341;DHT22;16337;59.536;13.468;2023-04-03T15:54:20;5.00;97.20
29341;DHT22;16337;59.536;13.468;2023-04-03T15:56:45;4.90;97.70
29341;DHT22;16337;59.536;13.468;2023-04-03T15:59:11;4.80;96.60
29341;DHT22;16337;59.536;13.468;2023-04-03T16:01:38;4.70;97.00
29341;DHT22;16337;59.536;13.468;2023-04-03T16:04:06;4.60;98.00
29341;DHT22;16337;59.536;13.468;2023-04-03T16:06:33;4.60;97.50
29341;DHT22;16337;59.536;13.468;2023-04-03T16:08:59;4.50;98.70
29341;DHT22;16337;59.536;13.468;2023-04-03T16:11:27;4.40;98.70
29341;DHT22;16337;59.536;13.468;2023-04-03T16:13:53;4.40;98.60
29341;DHT22;16337;59.536;13.468;2023-04-03T16:16:19;4.40;99.60
29341;DHT22;16337;59.536;13.468;2023-04-03T16:18:46;4.30;99.90
29341;DHT22;16337;59.536;13.468;2023-04-03T16:21:13;4.30;98.70
29341;DHT22;16337;59.536;13.468;2023-04-03T16:23:40;4.30;99.90
29341;DHT22;16337;59.536;13.468;2023-04-03T16:26:09;4.30;99.90
29341;DHT22;16337;59.536;13.468;2023-04-03T16:28:35;4.30;99.90
29341;DHT22;16337;59.536;13.468;2023-04-03T16:31:01;4.20;99.90
29341;DHT22;16337;59.536;13.468;2023-04-03T16:33:27;4.20;99.90
29341;DHT22;16337;59.536;13.468;2023-04-03T16:35:53;4.20;99.90
29341;DHT22;16337;59.536;13.468;2023-04-03T16:38:19;4.20;99.90
29341;DHT22;16337;59.536;13.468;2023-04-03T16:40:48;4.20;99.90
29341;DHT22;16337;59.536;13.468;2023-04-03T16:43:15;4.20;99.90
29341;DHT22;16337;59.536;13.468;2023-04-03T16:45:41;4.20;99.90
29341;DHT22;16337;59.536;13.468;2023-04-03T16:48:07;4.10;99.90
29341;DHT22;16337;59.536;13.468;2023-04-03T16:50:32;4.10;99.90
29341;DHT22;16337;59.536;13.468;2023-04-03T16:52:58;3.90;99.90
29341;DHT22;16337;59.536;13.468;2023-04-03T16:55:24;3.80;99.90
29341;DHT22;16337;59.536;13.468;2023-04-03T16:57:50;3.60;99.90
29341;DHT22;16337;59.536;13.468;2023-04-03T17:00:16;3.50;99.90
29341;DHT22;16337;59.536;13.468;2023-04-03T17:02:42;3.40;99.90
29341;DHT22;16337;59.536;13.468;2023-04-03T17:05:08;3.30;99.90
29341;DHT22;16337;59.536;13.468;2023-04-03T17:07:34;3.10;99.90
29341;DHT22;16337;59.536;13.468;2023-04-03T17:10:00;3.00;99.90
29341;DHT22;16337;59.536;13.468;2023-04-03T17:12:26;2.90;99.90
29341;DHT22;16337;59.536;13.468;2023-04-03T17:14:51;2.80;99.90
29341;DHT22;16337;59.536;13.468;2023-04-03T17:17:22;2.70;99.90
29341;DHT22;16337;59.536;13.468;2023-04-03T17:19:49;2.60;99.90
29341;DHT22;16337;59.536;13.468;2023-04-03T17:22:15;2.40;99.90
29341;DHT22;16337;59.536;13.468;2023-04-03T17:24:42;2.20;99.90
29341;DHT22;16337;59.536;13.468;2023-04-03T17:27:08;2.10;99.90
29341;DHT22;16337;59.536;13.468;2023-04-03T17:29:34;2.10;99.90